createdAt,value
2022-08-18T00:00:06.270Z,99455.16
2022-08-18T00:02:43.432Z,99460.31
2022-08-18T00:05:16.473Z,99467.25
2022-08-18T00:07:47.100Z,99471.50
2022-08-18T00:10:18.777Z,99477.72
2022-08-18T00:12:46.010Z,99482.97
2022-08-18T00:15:16.806Z,99481.59
2022-08-18T00:17:43.923Z,99476.78
2022-08-18T00:20:22.013Z,99469.31
2022-08-18T00:22:50.208Z,99472.13
2022-08-18T00:25:19.785Z,99466.34
2022-08-18T00:27:46.906Z,99463.00
2022-08-18T00:30:20.209Z,99463.16
2022-08-18T00:32:57.792Z,99457.38
2022-08-18T00:35:32.832Z,99450.72
2022-08-18T00:38:04.088Z,99452.66
2022-08-18T00:40:38.594Z,99453.75
2022-08-18T00:43:13.664Z,99453.06
2022-08-18T00:45:43.498Z,99447.22
2022-08-18T00:48:15.214Z,99449.97
2022-08-18T00:50:51.621Z,99444.97
2022-08-18T00:53:27.661Z,99447.69
2022-08-18T00:56:05.049Z,99447.78
2022-08-18T00:58:41.348Z,99444.41
2022-08-18T01:01:12.746Z,99444.41
2022-08-18T01:03:43.874Z,99436.78
2022-08-18T01:06:23.964Z,99442.03
2022-08-18T01:08:51.214Z,99435.28
2022-08-18T01:11:18.127Z,99442.03
2022-08-18T01:13:45.648Z,99442.09
2022-08-18T01:16:31.050Z,99444.59
2022-08-18T01:19:16.669Z,99442.97
2022-08-18T01:21:51.087Z,99449.75
2022-08-18T01:24:52.327Z,99438.63
2022-08-18T01:27:19.704Z,99445.66
2022-08-18T01:29:50.128Z,99448.09
2022-08-18T01:32:21.924Z,99445.47
2022-08-18T01:34:51.914Z,99454.88
2022-08-18T01:37:24.445Z,99455.81
2022-08-18T01:41:25.075Z,99453.19
2022-08-18T01:42:39.786Z,99462.59
2022-08-18T01:45:08.242Z,99462.69
2022-08-18T01:47:48.313Z,99464.44
2022-08-18T01:50:16.077Z,99476.50
2022-08-18T01:52:43.604Z,99473.19
2022-08-18T01:55:10.810Z,99474.00
2022-08-18T01:57:42.932Z,99480.97
2022-08-18T02:00:17.090Z,99475.91
2022-08-18T02:02:44.212Z,99475.97
2022-08-18T02:05:18.293Z,99481.03
2022-08-18T02:07:45.201Z,99478.69
2022-08-18T02:10:16.592Z,99478.72
2022-08-18T02:12:44.050Z,99477.06
2022-08-18T02:15:12.564Z,99467.88
2022-08-18T02:17:42.816Z,99475.47
2022-08-18T02:20:15.070Z,99470.34
2022-08-18T02:22:42.939Z,99472.13
2022-08-18T02:25:12.057Z,99468.66
2022-08-18T02:27:39.076Z,99464.47
2022-08-18T02:30:10.948Z,99451.63
2022-08-18T02:32:38.244Z,99441.41
2022-08-18T02:35:09.441Z,99440.53
2022-08-18T02:37:42.046Z,99434.59
2022-08-18T02:40:14.849Z,99441.53
2022-08-18T02:42:43.383Z,99443.09
2022-08-18T02:45:12.736Z,99439.59
2022-08-18T02:47:40.748Z,99435.38
2022-08-18T02:50:10.934Z,99437.16
2022-08-18T02:52:40.337Z,99436.28
2022-08-18T02:55:08.175Z,99427.72
2022-08-18T02:57:35.011Z,99422.56
2022-08-18T03:00:02.336Z,99419.03
2022-08-18T03:02:29.173Z,99422.53
2022-08-18T03:04:55.957Z,99422.63
2022-08-18T03:07:22.832Z,99434.59
2022-08-18T03:09:49.737Z,99435.50
2022-08-18T03:12:16.605Z,99434.59
2022-08-18T03:14:43.574Z,99434.59
2022-08-18T03:17:10.731Z,99428.06
2022-08-18T03:19:38.694Z,99418.53
2022-08-18T03:22:27.559Z,99421.19
2022-08-18T03:24:56.479Z,99421.50
2022-08-18T03:27:23.271Z,99423.03
2022-08-18T03:29:51.370Z,99428.31
2022-08-18T03:32:18.827Z,99424.97
2022-08-18T03:34:45.698Z,99421.50
2022-08-18T03:37:12.750Z,99423.19
2022-08-18T03:39:40.812Z,99414.75
2022-08-18T03:42:08.169Z,99407.94
2022-08-18T03:44:39.310Z,99411.47
2022-08-18T03:47:10.838Z,99412.44
2022-08-18T03:49:38.633Z,99414.25
2022-08-18T03:52:10.999Z,99418.44
2022-08-18T03:54:39.133Z,99404.94
2022-08-18T03:57:09.940Z,99413.41
2022-08-18T03:59:37.356Z,99409.28
2022-08-18T04:02:05.464Z,99419.56
2022-08-18T04:04:32.397Z,99416.28
2022-08-18T04:07:06.104Z,99413.78
2022-08-18T04:09:35.910Z,99422.41
2022-08-18T04:12:17.006Z,99424.13
2022-08-18T04:14:49.479Z,99427.88
2022-08-18T04:17:24.962Z,99443.22
2022-08-18T04:19:55.133Z,99434.78
2022-08-18T04:22:23.794Z,99439.88
2022-08-18T04:24:51.193Z,99454.31
2022-08-18T04:27:21.146Z,99445.66
2022-08-18T04:29:48.873Z,99448.13
2022-08-18T04:32:16.643Z,99458.19
2022-08-18T04:34:43.610Z,99459.72
2022-08-18T04:37:10.946Z,99460.38
2022-08-18T04:39:38.245Z,99457.63
2022-08-18T04:42:05.877Z,99467.63
2022-08-18T04:44:33.781Z,99465.63
2022-08-18T04:47:02.057Z,99466.28
2022-08-18T04:49:30.215Z,99462.69
2022-08-18T04:52:30.880Z,99470.97
2022-08-18T04:55:03.786Z,99473.41
2022-08-18T04:57:34.033Z,99476.63
2022-08-18T05:00:04.844Z,99467.88
2022-08-18T05:02:33.040Z,99473.59
2022-08-18T05:05:01.517Z,99470.00
2022-08-18T05:07:30.390Z,99469.81
2022-08-18T05:09:57.397Z,99477.38
2022-08-18T05:12:25.933Z,99476.41
2022-08-18T05:14:56.741Z,99484.75
2022-08-18T05:17:29.975Z,99487.19
2022-08-18T05:19:59.881Z,99492.06
2022-08-18T05:22:31.212Z,99496.09
2022-08-18T05:24:59.960Z,99489.09
2022-08-18T05:27:32.967Z,99494.94
2022-08-18T05:29:59.860Z,99499.75
2022-08-18T05:32:37.310Z,99499.50
2022-08-18T05:35:25.338Z,99487.44
2022-08-18T05:38:17.109Z,99506.97
2022-08-18T05:40:46.098Z,99490.63
2022-08-18T05:43:15.393Z,99499.78
2022-08-18T05:45:44.113Z,99507.34
2022-08-18T05:48:10.969Z,99514.84
2022-08-18T05:50:38.234Z,99506.94
2022-08-18T05:53:14.081Z,99504.28
2022-08-18T05:56:19.886Z,99515.19
2022-08-18T05:58:55.431Z,99515.13
2022-08-18T06:01:38.614Z,99511.56
2022-08-18T06:04:29.614Z,99518.31
2022-08-18T06:06:58.046Z,99513.03
2022-08-18T06:09:38.622Z,99519.56
2022-08-18T06:12:19.327Z,99522.06
2022-08-18T06:14:46.470Z,99528.75
2022-08-18T06:17:43.788Z,99531.25
2022-08-18T06:20:42.848Z,99534.59
2022-08-18T06:23:34.433Z,99533.63
2022-08-18T06:26:26.681Z,99530.13
2022-08-18T06:29:12.358Z,99536.03
2022-08-18T06:31:51.452Z,99536.66
2022-08-18T06:35:18.459Z,99540.84
2022-08-18T06:38:46.411Z,99544.19
2022-08-18T06:41:40.772Z,99555.09
2022-08-18T06:44:19.760Z,99555.84
2022-08-18T06:47:20.874Z,99550.63
2022-08-18T06:49:55.495Z,99553.97
2022-08-18T06:52:33.853Z,99554.63
2022-08-18T06:55:17.462Z,99539.97
2022-08-18T06:57:58.228Z,99553.66
2022-08-18T07:00:32.662Z,99552.56
2022-08-18T07:03:18.010Z,99555.94
2022-08-18T07:06:06.393Z,99553.28
2022-08-18T07:08:43.059Z,99536.91
2022-08-18T07:11:17.881Z,99542.72
2022-08-18T07:14:03.409Z,99543.34
2022-08-18T07:16:57.174Z,99551.00
2022-08-18T07:19:30.355Z,99555.16
2022-08-18T07:22:11.361Z,99552.44
2022-08-18T07:24:48.500Z,99556.69
2022-08-18T07:27:49.115Z,99553.97
2022-08-18T07:30:36.080Z,99561.63
2022-08-18T07:33:21.292Z,99557.28
2022-08-18T07:35:54.102Z,99550.31
2022-08-18T07:38:58.494Z,99543.28
2022-08-18T07:41:39.121Z,99548.19
2022-08-18T07:44:26.582Z,99541.06
2022-08-18T07:47:07.315Z,99543.34
2022-08-18T07:49:50.193Z,99541.28
2022-08-18T07:52:47.230Z,99537.53
2022-08-18T07:55:35.644Z,99555.34
2022-08-18T07:58:22.878Z,99562.00
2022-08-18T08:01:27.877Z,99561.69
2022-08-18T08:04:25.275Z,99567.53
2022-08-18T08:07:30.826Z,99571.63
2022-08-18T08:10:37.621Z,99559.41
2022-08-18T08:13:53.935Z,99565.00
2022-08-18T08:16:51.264Z,99568.41
2022-08-18T08:19:59.633Z,99564.69
2022-08-18T08:22:31.061Z,99571.19
2022-08-18T08:25:45.930Z,99566.78
2022-08-18T08:28:55.154Z,99570.03
2022-08-18T08:31:50.887Z,99576.69
2022-08-18T08:34:40.059Z,99584.22
2022-08-18T08:37:15.835Z,99590.88
2022-08-18T08:39:54.164Z,99598.31
2022-08-18T08:42:45.829Z,99595.72
2022-08-18T08:45:27.315Z,99588.44
2022-08-18T08:48:24.429Z,99591.78
2022-08-18T08:51:03.675Z,99590.53
2022-08-18T08:53:41.756Z,99586.84
2022-08-18T08:56:16.488Z,99581.34
2022-08-18T08:59:02.380Z,99570.03
2022-08-18T09:02:08.767Z,99578.44
2022-08-18T09:05:09.639Z,99574.59
2022-08-18T09:08:14.234Z,99578.63
2022-08-18T09:10:59.515Z,99564.59
2022-08-18T09:13:56.041Z,99569.41
2022-08-18T09:16:52.863Z,99579.50
2022-08-18T09:19:58.730Z,99571.56
2022-08-18T09:22:55.907Z,99573.84
2022-08-18T09:25:38.206Z,99567.25
2022-08-18T09:28:13.821Z,99563.13
2022-08-18T09:30:54.587Z,99553.06
2022-08-18T09:33:48.424Z,99563.66
2022-08-18T09:36:37.869Z,99557.94
2022-08-18T09:39:56.572Z,99556.38
2022-08-18T09:42:56.309Z,99558.28
2022-08-18T09:45:35.457Z,99562.63
2022-08-18T09:48:28.104Z,99573.91
2022-08-18T09:51:19.306Z,99573.09
2022-08-18T09:53:46.274Z,99584.56
2022-08-18T09:56:53.590Z,99580.44
2022-08-18T09:59:36.754Z,99578.09
2022-08-18T10:02:28.578Z,99565.41
2022-08-18T10:05:17.353Z,99563.59
2022-08-18T10:07:54.356Z,99566.88
2022-08-18T10:11:01.504Z,99569.16
2022-08-18T10:14:06.485Z,99570.16
2022-08-18T10:17:23.856Z,99563.75
2022-08-18T10:20:26.823Z,99569.19
2022-08-18T10:22:57.409Z,99568.69
2022-08-18T10:25:38.486Z,99563.09
2022-08-18T10:28:10.550Z,99561.00
2022-08-18T10:34:19.155Z,99554.69
2022-08-18T10:36:51.952Z,99547.38
2022-08-18T10:39:47.096Z,99540.25
2022-08-18T10:46:51.863Z,99540.44
2022-08-18T10:49:29.948Z,99522.75
2022-08-18T10:53:24.218Z,99517.91
2022-08-18T10:56:27.424Z,99525.00
2022-08-18T10:59:07.828Z,99528.13
2022-08-18T11:01:59.519Z,99524.81
2022-08-18T11:04:44.167Z,99523.91
2022-08-18T11:10:58.001Z,99518.94
2022-08-18T11:13:56.913Z,99524.16
2022-08-18T11:17:24.140Z,99530.06
2022-08-18T11:19:54.715Z,99522.72
2022-08-18T11:22:34.413Z,99512.41
2022-08-18T11:25:19.501Z,99504.47
2022-08-18T11:27:51.289Z,99504.44
2022-08-18T11:30:21.321Z,99501.13
2022-08-18T11:33:02.948Z,99500.44
2022-08-18T11:35:48.296Z,99491.16
2022-08-18T11:38:21.041Z,99492.53
2022-08-18T11:41:11.243Z,99508.75
2022-08-18T11:43:46.582Z,99513.00
2022-08-18T11:46:30.400Z,99496.81
2022-08-18T11:49:01.709Z,99500.41
2022-08-18T11:51:33.208Z,99510.19
2022-08-18T11:54:13.864Z,99508.13
2022-08-18T11:56:40.831Z,99502.97
2022-08-18T11:59:53.956Z,99492.34
2022-08-18T12:02:24.236Z,99500.38
2022-08-18T12:05:03.486Z,99490.59
2022-08-18T12:07:57.570Z,99500.09
2022-08-18T12:10:29.645Z,99513.91
2022-08-18T12:13:00.622Z,99518.28
2022-08-18T12:15:44.110Z,99519.53
2022-08-18T12:18:26.149Z,99522.00
2022-08-18T12:20:58.951Z,99540.19
2022-08-18T12:23:26.118Z,99547.88
2022-08-18T12:25:53.076Z,99561.66
2022-08-18T12:28:22.283Z,99565.78
2022-08-18T12:30:57.012Z,99577.84
2022-08-18T12:33:25.436Z,99597.94
2022-08-18T12:35:54.721Z,99589.91
2022-08-18T12:38:23.430Z,99577.75
2022-08-18T12:40:51.050Z,99564.25
2022-08-18T12:43:18.952Z,99564.66
2022-08-18T12:45:47.463Z,99560.50
2022-08-18T12:48:14.714Z,99556.22
2022-08-18T12:50:54.696Z,99550.16
2022-08-18T12:53:29.993Z,99533.28
2022-08-18T12:56:19.720Z,99516.06
2022-08-18T12:58:47.660Z,99496.38
2022-08-18T13:01:25.015Z,99499.72
2022-08-18T13:04:13.317Z,99492.50
2022-08-18T13:07:04.791Z,99486.88
2022-08-18T13:09:52.592Z,99476.00
2022-08-18T13:12:22.453Z,99476.53
2022-08-18T13:14:58.007Z,99475.72
2022-08-18T13:17:30.076Z,99475.72
2022-08-18T13:20:13.822Z,99479.44
2022-08-18T13:22:41.796Z,99468.53
2022-08-18T13:25:32.761Z,99472.25
2022-08-18T13:28:01.898Z,99471.31
2022-08-18T13:30:32.143Z,99453.50
2022-08-18T13:33:02.703Z,99468.97
2022-08-18T13:35:38.311Z,99467.44
2022-08-18T13:38:20.791Z,99475.44
2022-08-18T13:40:55.623Z,99481.78
2022-08-18T13:43:32.048Z,99474.47
2022-08-18T13:45:59.862Z,99471.84
2022-08-18T13:48:29.775Z,99468.81
2022-08-18T13:51:00.982Z,99479.97
2022-08-18T13:53:31.324Z,99487.81
2022-08-18T13:55:59.463Z,99482.47
2022-08-18T13:58:29.129Z,99480.50
2022-08-18T14:03:48.204Z,99485.25
2022-08-18T14:06:22.468Z,99487.72
2022-08-18T14:08:50.683Z,99487.44
2022-08-18T14:11:18.691Z,99486.06
2022-08-18T14:13:46.896Z,99486.06
2022-08-18T14:16:18.926Z,99480.69
2022-08-18T14:19:09.923Z,99481.69
2022-08-18T14:22:01.787Z,99477.69
2022-08-18T14:24:49.517Z,99476.16
2022-08-18T14:27:18.424Z,99466.59
2022-08-18T14:29:48.571Z,99456.00
2022-08-18T14:32:28.432Z,99467.31
2022-08-18T14:35:31.908Z,99468.69
2022-08-18T14:37:49.437Z,99472.66
2022-08-18T14:40:19.919Z,99470.31
2022-08-18T14:42:55.068Z,99462.19
2022-08-18T14:45:31.672Z,99452.56
2022-08-18T14:48:07.443Z,99449.38
2022-08-18T14:50:44.693Z,99457.63
2022-08-18T14:53:20.078Z,99456.13
2022-08-18T14:55:52.589Z,99447.41
2022-08-18T14:58:28.662Z,99449.47
2022-08-18T15:00:59.221Z,99456.75
2022-08-18T15:03:31.613Z,99447.91
2022-08-18T15:06:04.858Z,99457.16
2022-08-18T15:08:37.857Z,99453.59
2022-08-18T15:11:11.299Z,99439.81
2022-08-18T15:13:43.377Z,99443.13
2022-08-18T15:16:11.562Z,99450.72
2022-08-18T15:18:38.398Z,99456.22
2022-08-18T15:21:38.321Z,99446.03
2022-08-18T15:24:26.306Z,99450.75
2022-08-18T15:27:03.286Z,99447.22
2022-08-18T15:29:34.269Z,99446.41
2022-08-18T15:32:06.089Z,99444.25
2022-08-18T15:34:47.085Z,99447.59
2022-08-18T15:37:20.367Z,99447.59
2022-08-18T15:40:02.933Z,99457.09
2022-08-18T15:42:30.209Z,99447.88
2022-08-18T15:45:12.097Z,99448.28
2022-08-18T15:47:41.358Z,99445.53
2022-08-18T15:50:21.881Z,99449.69
2022-08-18T15:53:00.604Z,99438.09
2022-08-18T15:55:36.059Z,99430.50
2022-08-18T15:58:11.108Z,99431.59
2022-08-18T16:00:45.518Z,99431.88
2022-08-18T16:03:14.841Z,99430.50
2022-08-18T16:05:56.658Z,99419.47
2022-08-18T16:08:25.783Z,99425.81
2022-08-18T16:10:54.469Z,99431.50
2022-08-18T16:13:22.833Z,99427.63
2022-08-18T16:15:50.422Z,99428.19
2022-08-18T16:18:23.132Z,99420.19
2022-08-18T16:20:50.603Z,99430.38
2022-08-18T16:23:23.654Z,99425.13
2022-08-18T16:25:50.614Z,99419.19
2022-08-18T16:28:17.382Z,99427.00
2022-08-18T16:30:46.682Z,99419.97
2022-08-18T16:33:13.457Z,99426.97
2022-08-18T16:35:40.359Z,99422.66
2022-08-18T16:38:12.088Z,99419.47
2022-08-18T16:40:40.281Z,99420.13
2022-08-18T16:43:07.370Z,99405.75
2022-08-18T16:45:37.242Z,99414.50
2022-08-18T16:48:08.181Z,99411.41
2022-08-18T16:50:37.636Z,99419.44
2022-08-18T16:53:05.526Z,99412.75
2022-08-18T16:55:32.475Z,99412.94
2022-08-18T16:58:18.025Z,99407.06
2022-08-18T17:01:03.181Z,99407.38
2022-08-18T17:03:48.429Z,99403.16
2022-08-18T17:06:18.791Z,99403.06
2022-08-18T17:08:46.191Z,99403.81
2022-08-18T17:11:18.904Z,99406.06
2022-08-18T17:13:49.541Z,99402.31
2022-08-18T17:16:19.818Z,99395.09
2022-08-18T17:18:47.759Z,99390.84
2022-08-18T17:21:20.060Z,99388.75
2022-08-18T17:23:48.890Z,99398.13
2022-08-18T17:27:19.194Z,99391.34
2022-08-18T17:30:01.596Z,99396.00
2022-08-18T17:32:52.004Z,99393.25
2022-08-18T17:35:30.448Z,99389.59
2022-08-18T17:38:09.186Z,99396.22
2022-08-18T17:40:48.214Z,99383.91
2022-08-18T17:43:22.914Z,99397.34
2022-08-18T17:45:57.577Z,99395.44
2022-08-18T17:48:40.848Z,99397.81
2022-08-18T17:51:34.176Z,99399.13
2022-08-18T17:54:23.512Z,99396.16
2022-08-18T17:57:01.421Z,99394.94
2022-08-18T17:59:52.038Z,99409.00
2022-08-18T18:02:29.759Z,99398.22
2022-08-18T18:05:07.131Z,99399.41
2022-08-18T18:07:57.876Z,99396.50
2022-08-18T18:11:04.455Z,99396.03
2022-08-18T18:13:33.931Z,99406.63
2022-08-18T18:16:24.864Z,99405.19
2022-08-18T18:19:03.373Z,99394.09
2022-08-18T18:21:53.396Z,99391.94
2022-08-18T18:24:32.297Z,99397.38
2022-08-18T18:27:00.081Z,99384.69
2022-08-18T18:29:38.016Z,99390.84
2022-08-18T18:32:27.732Z,99394.94
2022-08-18T18:35:22.862Z,99397.25
2022-08-18T18:38:23.054Z,99400.63
2022-08-18T18:41:01.945Z,99397.59
2022-08-18T18:43:45.948Z,99398.16
2022-08-18T18:46:24.541Z,99411.47
2022-08-18T18:49:05.789Z,99407.88
2022-08-18T18:52:19.228Z,99408.63
2022-08-18T18:55:03.428Z,99404.91
2022-08-18T18:57:48.570Z,99410.50
2022-08-18T19:00:41.962Z,99405.28
2022-08-18T19:03:38.389Z,99418.59
2022-08-18T19:06:32.547Z,99416.81
2022-08-18T19:09:29.536Z,99414.97
2022-08-18T19:12:20.812Z,99419.00
2022-08-18T19:15:00.028Z,99414.34
2022-08-18T19:17:38.811Z,99415.78
2022-08-18T19:20:17.087Z,99419.78
2022-08-18T19:23:11.069Z,99418.53
2022-08-18T19:25:52.204Z,99418.94
2022-08-18T19:28:34.325Z,99422.88
2022-08-18T19:31:23.233Z,99427.69
2022-08-18T19:34:08.525Z,99433.38
2022-08-18T19:37:06.941Z,99425.56
2022-08-18T19:39:42.690Z,99436.13
2022-08-18T19:42:35.694Z,99428.09
2022-08-18T19:45:29.849Z,99432.81
2022-08-18T19:48:18.224Z,99428.22
2022-08-18T19:50:58.045Z,99428.50
2022-08-18T19:53:56.985Z,99434.47
2022-08-18T19:56:36.580Z,99426.25
2022-08-18T19:59:15.387Z,99423.16
2022-08-18T20:01:45.495Z,99433.94
2022-08-18T20:05:01.646Z,99425.78
2022-08-18T20:08:06.600Z,99431.78
2022-08-18T20:11:11.026Z,99434.00
2022-08-18T20:13:44.643Z,99433.50
2022-08-18T20:16:44.036Z,99437.41
2022-08-18T20:19:43.360Z,99436.28
2022-08-18T20:22:24.328Z,99438.16
2022-08-18T20:25:08.786Z,99440.22
2022-08-18T20:28:11.218Z,99436.72
2022-08-18T20:31:06.721Z,99449.22
2022-08-18T20:33:46.809Z,99449.56
2022-08-18T20:36:36.676Z,99450.09
2022-08-18T20:39:47.557Z,99448.03
2022-08-18T20:42:24.576Z,99439.81
2022-08-18T20:44:59.747Z,99443.63
2022-08-18T20:48:12.969Z,99449.16
2022-08-18T20:51:13.675Z,99454.84
2022-08-18T20:54:13.381Z,99455.34
2022-08-18T20:56:44.452Z,99460.66
2022-08-18T20:59:21.631Z,99462.59
2022-08-18T21:01:56.317Z,99457.56
2022-08-18T21:04:46.486Z,99457.06
2022-08-18T21:07:36.207Z,99466.66
2022-08-18T21:10:21.628Z,99464.41
2022-08-18T21:12:56.706Z,99459.41
2022-08-18T21:15:35.537Z,99464.81
2022-08-18T21:18:20.862Z,99457.47
2022-08-18T21:20:51.212Z,99456.66
2022-08-18T21:23:29.762Z,99455.91
2022-08-18T21:26:09.994Z,99455.22
2022-08-18T21:28:40.795Z,99450.22
2022-08-18T21:31:42.676Z,99452.13
2022-08-18T21:34:28.714Z,99449.81
2022-08-18T21:36:58.192Z,99460.28
2022-08-18T21:39:25.675Z,99456.13
2022-08-18T21:41:56.850Z,99462.28
2022-08-18T21:44:38.442Z,99464.13
2022-08-18T21:47:17.671Z,99471.97
2022-08-18T21:50:17.375Z,99468.88
2022-08-18T21:53:01.639Z,99467.28
2022-08-18T21:55:39.741Z,99468.22
2022-08-18T21:58:16.715Z,99468.34
2022-08-18T22:01:11.257Z,99471.19
2022-08-18T22:04:06.997Z,99474.91
2022-08-18T22:06:33.796Z,99472.31
2022-08-18T22:09:28.468Z,99467.16
2022-08-18T22:12:46.834Z,99477.81
2022-08-18T22:15:25.838Z,99466.66
2022-08-18T22:18:00.947Z,99466.66
2022-08-18T22:20:50.578Z,99463.16
2022-08-18T22:23:46.435Z,99463.06
2022-08-18T22:26:28.778Z,99461.41
2022-08-18T22:29:16.475Z,99464.84
2022-08-18T22:31:48.262Z,99462.25
2022-08-18T22:34:28.606Z,99467.41
2022-08-18T22:37:03.572Z,99474.38
2022-08-18T22:39:55.737Z,99471.88
2022-08-18T22:42:27.709Z,99482.38
2022-08-18T22:44:58.079Z,99486.75
2022-08-18T22:47:29.324Z,99486.91
2022-08-18T22:49:57.330Z,99481.91
2022-08-18T22:52:40.479Z,99478.66
2022-08-18T22:55:12.722Z,99478.75
2022-08-18T22:57:42.799Z,99482.31
2022-08-18T23:00:15.238Z,99496.09
2022-08-18T23:02:43.708Z,99482.53
2022-08-18T23:05:11.828Z,99485.09
2022-08-18T23:07:38.799Z,99476.69
2022-08-18T23:10:13.558Z,99485.25
2022-08-18T23:12:46.795Z,99481.00
2022-08-18T23:15:17.036Z,99482.91
2022-08-18T23:17:44.389Z,99490.63
2022-08-18T23:20:19.223Z,99492.22
2022-08-18T23:22:47.883Z,99500.81
2022-08-18T23:25:15.826Z,99500.03
2022-08-18T23:27:43.079Z,99501.84
2022-08-18T23:30:11.132Z,99493.28
2022-08-18T23:32:38.063Z,99499.34
2022-08-18T23:35:05.776Z,99495.09
2022-08-18T23:37:32.635Z,99494.34
2022-08-18T23:39:59.658Z,99502.16
2022-08-18T23:42:26.715Z,99500.53
2022-08-18T23:44:53.547Z,99497.97
2022-08-18T23:47:20.784Z,99492.88
2022-08-18T23:49:48.356Z,99506.69
2022-08-18T23:52:15.379Z,99501.59
2022-08-18T23:54:42.455Z,99500.00
2022-08-18T23:57:09.317Z,99504.31
2022-08-18T23:59:36.589Z,99511.34
